sensor_id;sensor_type;location;lat;lon;timestamp;pressure;altitude;pressure_sealevel;temperature;humidity
8890;BME280;4481;43.406;24.454;2023-02-14T00:01:13;79674.78;;;-144.09;100.00
8890;BME280;4481;43.406;24.454;2023-02-14T00:03:39;79704.06;;;-144.09;100.00
8890;BME280;4481;43.406;24.454;2023-02-14T00:06:06;79683.16;;;-144.09;100.00
8890;BME280;4481;43.406;24.454;2023-02-14T00:08:33;79664.34;;;-144.09;100.00
8890;BME280;4481;43.406;24.454;2023-02-14T00:11:00;79662.25;;;-144.09;100.00
8890;BME280;4481;43.406;24.454;2023-02-14T00:13:27;79655.97;;;-144.09;100.00
8890;BME280;4481;43.406;24.454;2023-02-14T00:15:53;79635.06;;;-144.09;100.00
8890;BME280;4481;43.406;24.454;2023-02-14T00:18:19;79628.78;;;-144.09;100.00
8890;BME280;4481;43.406;24.454;2023-02-14T00:20:46;79614.13;;;-144.09;100.00
8890;BME280;4481;43.406;24.454;2023-02-14T00:23:12;79618.31;;;-144.09;100.00
8890;BME280;4481;43.406;24.454;2023-02-14T00:25:38;79597.41;;;-144.09;100.00
8890;BME280;4481;43.406;24.454;2023-02-14T00:28:04;79607.88;;;-144.09;100.00
8890;BME280;4481;43.406;24.454;2023-02-14T00:30:33;79620.41;;;-144.09;100.00
8890;BME280;4481;43.406;24.454;2023-02-14T00:32:59;79586.94;;;-144.09;100.00
8890;BME280;4481;43.406;24.454;2023-02-14T00:35:25;79572.31;;;-144.09;100.00
8890;BME280;4481;43.406;24.454;2023-02-14T00:37:52;79568.13;;;-144.09;100.00
8890;BME280;4481;43.406;24.454;2023-02-14T00:40:18;79559.75;;;-144.09;100.00
8890;BME280;4481;43.406;24.454;2023-02-14T00:42:44;79557.69;;;-144.09;100.00
8890;BME280;4481;43.406;24.454;2023-02-14T00:45:10;79582.78;;;-144.09;100.00
8890;BME280;4481;43.406;24.454;2023-02-14T00:47:37;79586.94;;;-144.09;100.00
8890;BME280;4481;43.406;24.454;2023-02-14T00:50:04;79576.50;;;-144.09;100.00
8890;BME280;4481;43.406;24.454;2023-02-14T00:52:30;79580.69;;;-144.09;100.00
8890;BME280;4481;43.406;24.454;2023-02-14T00:54:57;79568.13;;;-144.09;100.00
8890;BME280;4481;43.406;24.454;2023-02-14T00:57:24;79568.13;;;-144.09;100.00
8890;BME280;4481;43.406;24.454;2023-02-14T00:59:50;79549.31;;;-144.09;100.00
8890;BME280;4481;43.406;24.454;2023-02-14T01:02:16;79534.66;;;-144.09;100.00
8890;BME280;4481;43.406;24.454;2023-02-14T01:04:43;79543.03;;;-144.09;100.00
8890;BME280;4481;43.406;24.454;2023-02-14T01:07:09;79536.75;;;-144.09;100.00
8890;BME280;4481;43.406;24.454;2023-02-14T01:09:35;79522.13;;;-144.09;100.00
8890;BME280;4481;43.406;24.454;2023-02-14T01:12:02;79517.94;;;-144.09;100.00
8890;BME280;4481;43.406;24.454;2023-02-14T01:14:28;79509.56;;;-144.09;100.00
8890;BME280;4481;43.406;24.454;2023-02-14T01:16:54;79511.66;;;-144.09;100.00
8890;BME280;4481;43.406;24.454;2023-02-14T01:19:20;79520.03;;;-144.09;99.93
8890;BME280;4481;43.406;24.454;2023-02-14T01:21:47;79511.66;;;-144.09;100.00
8890;BME280;4481;43.406;24.454;2023-02-14T01:24:13;79503.31;;;-144.09;100.00
8890;BME280;4481;43.406;24.454;2023-02-14T01:26:40;79476.09;;;-144.09;99.31
8890;BME280;4481;43.406;24.454;2023-02-14T01:29:06;79444.75;;;-144.09;98.98
8890;BME280;4481;43.406;24.454;2023-02-14T01:31:33;79428.00;;;-144.09;98.72
8890;BME280;4481;43.406;24.454;2023-02-14T01:34:00;79407.09;;;-144.09;98.19
8890;BME280;4481;43.406;24.454;2023-02-14T01:36:28;79396.63;;;-144.09;97.95
8890;BME280;4481;43.406;24.454;2023-02-14T01:38:56;79382.00;;;-144.09;97.69
8890;BME280;4481;43.406;24.454;2023-02-14T01:41:24;79361.09;;;-144.09;96.52
8890;BME280;4481;43.406;24.454;2023-02-14T01:43:56;79336.00;;;-144.09;95.87
8890;BME280;4481;43.406;24.454;2023-02-14T01:46:23;79327.63;;;-144.09;95.83
8890;BME280;4481;43.406;24.454;2023-02-14T01:48:51;79313.00;;;-144.09;95.48
8890;BME280;4481;43.406;24.454;2023-02-14T01:51:19;79317.16;;;-144.09;95.45
8890;BME280;4481;43.406;24.454;2023-02-14T01:53:46;79306.72;;;-144.09;95.56
8890;BME280;4481;43.406;24.454;2023-02-14T01:56:24;79308.81;;;-144.09;95.71
8890;BME280;4481;43.406;24.454;2023-02-14T01:58:55;79310.91;;;-144.09;96.10
8890;BME280;4481;43.406;24.454;2023-02-14T02:01:23;79308.81;;;-144.09;96.17
8890;BME280;4481;43.406;24.454;2023-02-14T02:03:53;79300.44;;;-144.09;95.62
8890;BME280;4481;43.406;24.454;2023-02-14T02:06:22;79294.16;;;-144.09;95.71
8890;BME280;4481;43.406;24.454;2023-02-14T02:08:58;79302.53;;;-144.09;95.91
8890;BME280;4481;43.406;24.454;2023-02-14T02:11:28;79315.09;;;-144.09;96.50
8890;BME280;4481;43.406;24.454;2023-02-14T02:13:54;79304.63;;;-144.09;96.24
8890;BME280;4481;43.406;24.454;2023-02-14T02:16:34;79306.72;;;-144.09;96.04
8890;BME280;4481;43.406;24.454;2023-02-14T02:19:25;79306.72;;;-144.09;95.83
8890;BME280;4481;43.406;24.454;2023-02-14T02:22:26;79298.34;;;-144.09;95.68
8890;BME280;4481;43.406;24.454;2023-02-14T02:25:00;79302.53;;;-144.09;95.56
8890;BME280;4481;43.406;24.454;2023-02-14T02:27:54;79319.25;;;-144.09;96.24
8890;BME280;4481;43.406;24.454;2023-02-14T02:33:56;79306.72;;;-144.09;96.27
8890;BME280;4481;43.406;24.454;2023-02-14T02:36:46;79310.91;;;-144.09;96.50
8890;BME280;4481;43.406;24.454;2023-02-14T02:39:31;79302.53;;;-144.09;96.58
8890;BME280;4481;43.406;24.454;2023-02-14T02:42:04;79285.81;;;-144.09;95.80
8890;BME280;4481;43.406;24.454;2023-02-14T02:44:41;79290.00;;;-144.09;96.23
8890;BME280;4481;43.406;24.454;2023-02-14T02:47:17;79292.06;;;-144.09;96.07
8890;BME280;4481;43.406;24.454;2023-02-14T02:49:54;79290.00;;;-144.09;96.28
8890;BME280;4481;43.406;24.454;2023-02-14T02:52:46;79298.34;;;-144.09;96.37
8890;BME280;4481;43.406;24.454;2023-02-14T02:55:36;79302.53;;;-144.09;96.54
8890;BME280;4481;43.406;24.454;2023-02-14T02:58:19;79279.53;;;-144.09;96.12
8890;BME280;4481;43.406;24.454;2023-02-14T03:00:49;79266.97;;;-144.09;95.73
8890;BME280;4481;43.406;24.454;2023-02-14T03:03:16;79281.63;;;-144.09;96.48
8890;BME280;4481;43.406;24.454;2023-02-14T03:06:01;79313.00;;;-144.09;96.64
8890;BME280;4481;43.406;24.454;2023-02-14T03:08:28;79285.81;;;-144.09;96.42
8890;BME280;4481;43.406;24.454;2023-02-14T03:10:55;79277.44;;;-144.09;96.49
8890;BME280;4481;43.406;24.454;2023-02-14T03:13:36;79273.25;;;-144.09;96.06
8890;BME280;4481;43.406;24.454;2023-02-14T03:16:32;79292.06;;;-144.09;96.68
8890;BME280;4481;43.406;24.454;2023-02-14T03:19:30;79310.91;;;-144.09;97.05
8890;BME280;4481;43.406;24.454;2023-02-14T03:22:20;79310.91;;;-144.09;97.23
8890;BME280;4481;43.406;24.454;2023-02-14T03:24:55;79313.00;;;-144.09;97.03
8890;BME280;4481;43.406;24.454;2023-02-14T03:27:26;79319.25;;;-144.09;97.58
8890;BME280;4481;43.406;24.454;2023-02-14T03:30:03;79333.91;;;-144.09;97.82
8890;BME280;4481;43.406;24.454;2023-02-14T03:32:37;79300.44;;;-144.09;97.28
8890;BME280;4481;43.406;24.454;2023-02-14T03:35:10;79304.63;;;-144.09;97.43
8890;BME280;4481;43.406;24.454;2023-02-14T03:37:43;79313.00;;;-144.09;97.46
8890;BME280;4481;43.406;24.454;2023-02-14T03:40:15;79302.53;;;-144.09;96.99
8890;BME280;4481;43.406;24.454;2023-02-14T03:42:48;79294.16;;;-144.09;97.17
8890;BME280;4481;43.406;24.454;2023-02-14T03:45:22;79310.91;;;-144.09;96.99
8890;BME280;4481;43.406;24.454;2023-02-14T03:47:50;79327.63;;;-144.09;97.69
8890;BME280;4481;43.406;24.454;2023-02-14T03:50:18;79323.44;;;-144.09;97.39
8890;BME280;4481;43.406;24.454;2023-02-14T03:52:45;79313.00;;;-144.09;97.38
8890;BME280;4481;43.406;24.454;2023-02-14T03:55:16;79317.16;;;-144.09;97.65
8890;BME280;4481;43.406;24.454;2023-02-14T03:57:48;79296.25;;;-144.09;97.24
8890;BME280;4481;43.406;24.454;2023-02-14T04:00:17;79290.00;;;-144.09;97.31
8890;BME280;4481;43.406;24.454;2023-02-14T04:02:45;79281.63;;;-144.09;96.85
8890;BME280;4481;43.406;24.454;2023-02-14T04:05:14;79279.53;;;-144.09;96.91
8890;BME280;4481;43.406;24.454;2023-02-14T04:07:46;79269.06;;;-144.09;97.07
8890;BME280;4481;43.406;24.454;2023-02-14T04:10:14;79285.81;;;-144.09;96.85
8890;BME280;4481;43.406;24.454;2023-02-14T04:12:40;79279.53;;;-144.09;97.15
8890;BME280;4481;43.406;24.454;2023-02-14T04:15:07;79279.53;;;-144.09;97.10
8890;BME280;4481;43.406;24.454;2023-02-14T04:17:34;79296.25;;;-144.09;97.09
8890;BME280;4481;43.406;24.454;2023-02-14T04:20:18;79300.44;;;-144.09;97.60
8890;BME280;4481;43.406;24.454;2023-02-14T04:22:44;79298.34;;;-144.09;97.31
8890;BME280;4481;43.406;24.454;2023-02-14T04:25:11;79302.53;;;-144.09;97.47
8890;BME280;4481;43.406;24.454;2023-02-14T04:27:38;79306.72;;;-144.09;97.80
8890;BME280;4481;43.406;24.454;2023-02-14T04:30:05;79292.06;;;-144.09;97.38
8890;BME280;4481;43.406;24.454;2023-02-14T04:32:32;79285.81;;;-144.09;97.36
8890;BME280;4481;43.406;24.454;2023-02-14T04:34:58;79294.16;;;-144.09;97.30
8890;BME280;4481;43.406;24.454;2023-02-14T04:37:24;79292.06;;;-144.09;97.03
8890;BME280;4481;43.406;24.454;2023-02-14T04:39:50;79304.63;;;-144.09;96.53
8890;BME280;4481;43.406;24.454;2023-02-14T04:42:16;79315.09;;;-144.09;96.33
8890;BME280;4481;43.406;24.454;2023-02-14T04:44:43;79348.53;;;-144.09;96.31
8890;BME280;4481;43.406;24.454;2023-02-14T04:47:09;79371.53;;;-144.09;97.17
8890;BME280;4481;43.406;24.454;2023-02-14T04:49:36;79382.00;;;-144.09;96.46
8890;BME280;4481;43.406;24.454;2023-02-14T04:52:03;79386.19;;;-144.09;97.38
8890;BME280;4481;43.406;24.454;2023-02-14T04:54:29;79386.19;;;-144.09;97.34
8890;BME280;4481;43.406;24.454;2023-02-14T04:56:55;79375.72;;;-144.09;97.51
8890;BME280;4481;43.406;24.454;2023-02-14T04:59:22;79386.19;;;-144.09;97.41
8890;BME280;4481;43.406;24.454;2023-02-14T05:01:48;79413.38;;;-144.09;98.65
8890;BME280;4481;43.406;24.454;2023-02-14T05:04:15;79409.19;;;-144.09;98.34
8890;BME280;4481;43.406;24.454;2023-02-14T05:06:41;79400.81;;;-144.09;98.11
8890;BME280;4481;43.406;24.454;2023-02-14T05:09:07;79417.56;;;-144.09;98.43
8890;BME280;4481;43.406;24.454;2023-02-14T05:11:33;79394.56;;;-144.09;98.99
8890;BME280;4481;43.406;24.454;2023-02-14T05:13:59;79400.81;;;-144.09;99.60
8890;BME280;4481;43.406;24.454;2023-02-14T05:16:26;79369.44;;;-144.09;99.06
8890;BME280;4481;43.406;24.454;2023-02-14T05:18:53;79363.19;;;-144.09;99.01
8890;BME280;4481;43.406;24.454;2023-02-14T05:21:19;79356.91;;;-144.09;99.13
8890;BME280;4481;43.406;24.454;2023-02-14T05:23:45;79342.28;;;-144.09;98.73
8890;BME280;4481;43.406;24.454;2023-02-14T05:26:11;79338.09;;;-144.09;98.74
8890;BME280;4481;43.406;24.454;2023-02-14T05:28:38;79331.81;;;-144.09;98.18
8890;BME280;4481;43.406;24.454;2023-02-14T05:31:05;79338.09;;;-144.09;98.51
8890;BME280;4481;43.406;24.454;2023-02-14T05:33:31;79333.91;;;-144.09;98.67
8890;BME280;4481;43.406;24.454;2023-02-14T05:35:58;79319.25;;;-144.09;97.97
8890;BME280;4481;43.406;24.454;2023-02-14T05:38:25;79327.63;;;-144.09;98.32
8890;BME280;4481;43.406;24.454;2023-02-14T05:40:51;79321.34;;;-144.09;97.96
8890;BME280;4481;43.406;24.454;2023-02-14T05:43:17;79308.81;;;-144.09;97.97
8890;BME280;4481;43.406;24.454;2023-02-14T05:45:43;79333.91;;;-144.09;98.27
8890;BME280;4481;43.406;24.454;2023-02-14T05:48:09;79327.63;;;-144.09;98.42
8890;BME280;4481;43.406;24.454;2023-02-14T05:50:36;79338.09;;;-144.09;98.72
8890;BME280;4481;43.406;24.454;2023-02-14T05:53:02;79338.09;;;-144.09;98.91
8890;BME280;4481;43.406;24.454;2023-02-14T05:55:29;79310.91;;;-144.09;97.94
8890;BME280;4481;43.406;24.454;2023-02-14T05:57:56;79308.81;;;-144.09;97.89
8890;BME280;4481;43.406;24.454;2023-02-14T06:00:22;79296.25;;;-144.09;97.70
8890;BME280;4481;43.406;24.454;2023-02-14T06:02:49;79302.53;;;-144.09;97.46
8890;BME280;4481;43.406;24.454;2023-02-14T06:05:15;79302.53;;;-144.09;97.33
8890;BME280;4481;43.406;24.454;2023-02-14T06:07:42;79300.44;;;-144.09;97.48
8890;BME280;4481;43.406;24.454;2023-02-14T06:10:14;79277.44;;;-144.09;97.00
8890;BME280;4481;43.406;24.454;2023-02-14T06:12:40;79294.16;;;-144.09;97.31
8890;BME280;4481;43.406;24.454;2023-02-14T06:15:07;79279.53;;;-144.09;97.29
8890;BME280;4481;43.406;24.454;2023-02-14T06:17:33;79258.63;;;-144.09;97.17
8890;BME280;4481;43.406;24.454;2023-02-14T06:19:59;79273.25;;;-144.09;97.22
8890;BME280;4481;43.406;24.454;2023-02-14T06:22:25;79275.34;;;-144.09;97.53
8890;BME280;4481;43.406;24.454;2023-02-14T06:24:52;79254.44;;;-144.09;97.12
8890;BME280;4481;43.406;24.454;2023-02-14T06:27:19;79239.78;;;-144.09;96.87
8890;BME280;4481;43.406;24.454;2023-02-14T06:29:47;79241.88;;;-144.09;96.67
8890;BME280;4481;43.406;24.454;2023-02-14T06:32:13;79231.44;;;-144.09;96.37
8890;BME280;4481;43.406;24.454;2023-02-14T06:34:39;79229.34;;;-144.09;96.20
8890;BME280;4481;43.406;24.454;2023-02-14T06:37:05;79231.44;;;-144.09;95.99
8890;BME280;4481;43.406;24.454;2023-02-14T06:39:34;79229.34;;;-144.09;95.99
8890;BME280;4481;43.406;24.454;2023-02-14T06:42:01;79210.53;;;-144.09;95.96
8890;BME280;4481;43.406;24.454;2023-02-14T06:44:27;79206.34;;;-144.09;95.40
8890;BME280;4481;43.406;24.454;2023-02-14T06:46:54;79197.97;;;-144.09;95.48
8890;BME280;4481;43.406;24.454;2023-02-14T06:49:20;79187.53;;;-144.09;95.44
8890;BME280;4481;43.406;24.454;2023-02-14T06:51:46;79189.59;;;-144.09;95.76
8890;BME280;4481;43.406;24.454;2023-02-14T06:54:14;79177.06;;;-144.09;94.99
8890;BME280;4481;43.406;24.454;2023-02-14T06:56:42;79147.78;;;-144.09;94.07
8890;BME280;4481;43.406;24.454;2023-02-14T06:59:12;79162.44;;;-144.09;94.24
8890;BME280;4481;43.406;24.454;2023-02-14T07:01:40;79156.16;;;-144.09;93.88
8890;BME280;4481;43.406;24.454;2023-02-14T07:04:08;79160.34;;;-144.09;93.97
8890;BME280;4481;43.406;24.454;2023-02-14T07:06:35;79164.50;;;-144.09;94.38
8890;BME280;4481;43.406;24.454;2023-02-14T07:09:02;79151.97;;;-144.09;94.52
8890;BME280;4481;43.406;24.454;2023-02-14T07:11:29;79154.06;;;-144.09;94.56
8890;BME280;4481;43.406;24.454;2023-02-14T07:13:57;79160.34;;;-144.09;94.49
8890;BME280;4481;43.406;24.454;2023-02-14T07:16:24;79135.25;;;-144.09;93.93
8890;BME280;4481;43.406;24.454;2023-02-14T07:18:53;79128.97;;;-144.09;94.13
8890;BME280;4481;43.406;24.454;2023-02-14T07:21:20;79120.59;;;-144.09;93.76
8890;BME280;4481;43.406;24.454;2023-02-14T07:23:48;79103.88;;;-144.09;93.53
8890;BME280;4481;43.406;24.454;2023-02-14T07:26:14;79093.41;;;-144.09;93.06
8890;BME280;4481;43.406;24.454;2023-02-14T07:28:44;79099.69;;;-144.09;92.68
8890;BME280;4481;43.406;24.454;2023-02-14T07:31:10;79097.59;;;-144.09;92.67
8890;BME280;4481;43.406;24.454;2023-02-14T07:33:36;79085.06;;;-144.09;92.66
8890;BME280;4481;43.406;24.454;2023-02-14T07:36:04;79093.41;;;-144.09;93.22
8890;BME280;4481;43.406;24.454;2023-02-14T07:38:30;79074.59;;;-144.09;92.42
8890;BME280;4481;43.406;24.454;2023-02-14T07:40:58;79080.88;;;-144.09;92.84
8890;BME280;4481;43.406;24.454;2023-02-14T07:43:26;79059.97;;;-144.09;92.60
8890;BME280;4481;43.406;24.454;2023-02-14T07:45:52;79062.06;;;-144.09;92.46
8890;BME280;4481;43.406;24.454;2023-02-14T07:48:18;79057.88;;;-144.09;91.90
8890;BME280;4481;43.406;24.454;2023-02-14T07:50:45;79072.50;;;-144.09;92.06
8890;BME280;4481;43.406;24.454;2023-02-14T07:53:12;79066.22;;;-144.09;92.52
8890;BME280;4481;43.406;24.454;2023-02-14T07:55:38;79041.13;;;-144.09;91.80
8890;BME280;4481;43.406;24.454;2023-02-14T07:58:05;79041.13;;;-144.09;92.21
8890;BME280;4481;43.406;24.454;2023-02-14T08:00:31;79041.13;;;-144.09;92.55
8890;BME280;4481;43.406;24.454;2023-02-14T08:02:58;79016.06;;;-144.09;92.03
8890;BME280;4481;43.406;24.454;2023-02-14T08:05:24;79011.88;;;-144.09;91.76
8890;BME280;4481;43.406;24.454;2023-02-14T08:07:54;79005.59;;;-144.09;91.76
8890;BME280;4481;43.406;24.454;2023-02-14T08:10:20;78980.50;;;-144.09;91.03
8890;BME280;4481;43.406;24.454;2023-02-14T08:12:47;78980.50;;;-144.09;90.76
8890;BME280;4481;43.406;24.454;2023-02-14T08:15:26;78995.13;;;-144.09;91.32
8890;BME280;4481;43.406;24.454;2023-02-14T08:18:11;78980.50;;;-144.09;90.99
8890;BME280;4481;43.406;24.454;2023-02-14T08:20:38;78974.22;;;-144.09;90.84
8890;BME280;4481;43.406;24.454;2023-02-14T08:23:05;78961.69;;;-144.09;90.30
8890;BME280;4481;43.406;24.454;2023-02-14T08:25:32;78988.88;;;-144.09;91.19
8890;BME280;4481;43.406;24.454;2023-02-14T08:28:00;78999.31;;;-144.09;91.58
8890;BME280;4481;43.406;24.454;2023-02-14T08:30:27;78967.94;;;-144.09;91.26
8890;BME280;4481;43.406;24.454;2023-02-14T08:32:53;78965.88;;;-144.09;90.79
8890;BME280;4481;43.406;24.454;2023-02-14T08:35:20;78951.22;;;-144.09;91.27
8890;BME280;4481;43.406;24.454;2023-02-14T08:37:46;78907.31;;;-144.09;90.61
8890;BME280;4481;43.406;24.454;2023-02-14T08:40:12;78909.41;;;-144.09;90.19
8890;BME280;4481;43.406;24.454;2023-02-14T08:42:39;78907.31;;;-144.09;89.47
8890;BME280;4481;43.406;24.454;2023-02-14T08:45:06;78890.59;;;-144.09;89.92
8890;BME280;4481;43.406;24.454;2023-02-14T08:47:32;78909.41;;;-144.09;89.20
8890;BME280;4481;43.406;24.454;2023-02-14T08:50:03;78917.78;;;-144.09;89.81
8890;BME280;4481;43.406;24.454;2023-02-14T08:52:30;78905.22;;;-144.09;89.28
8890;BME280;4481;43.406;24.454;2023-02-14T08:54:57;78890.59;;;-144.09;89.29
8890;BME280;4481;43.406;24.454;2023-02-14T08:57:24;78882.22;;;-144.09;88.95
8890;BME280;4481;43.406;24.454;2023-02-14T08:59:53;78875.94;;;-144.09;88.85
8890;BME280;4481;43.406;24.454;2023-02-14T09:02:20;78875.94;;;-144.09;88.13
8890;BME280;4481;43.406;24.454;2023-02-14T09:04:46;78884.31;;;-144.09;88.52
8890;BME280;4481;43.406;24.454;2023-02-14T09:07:13;78894.78;;;-144.09;88.75
8890;BME280;4481;43.406;24.454;2023-02-14T09:09:40;78894.78;;;-144.09;89.86
8890;BME280;4481;43.406;24.454;2023-02-14T09:12:08;78882.22;;;-144.09;88.63
8890;BME280;4481;43.406;24.454;2023-02-14T09:14:36;78878.03;;;-144.09;88.54
8890;BME280;4481;43.406;24.454;2023-02-14T09:17:06;78857.13;;;-144.09;88.77
8890;BME280;4481;43.406;24.454;2023-02-14T09:19:33;78850.84;;;-144.09;88.76
8890;BME280;4481;43.406;24.454;2023-02-14T09:22:00;78821.59;;;-144.09;87.68
8890;BME280;4481;43.406;24.454;2023-02-14T09:24:28;78806.94;;;-144.09;87.80
8890;BME280;4481;43.406;24.454;2023-02-14T09:26:55;78802.78;;;-144.09;88.41
8890;BME280;4481;43.406;24.454;2023-02-14T09:29:22;78788.13;;;-144.09;86.14
8890;BME280;4481;43.406;24.454;2023-02-14T09:31:51;78815.31;;;-144.09;86.65
8890;BME280;4481;43.406;24.454;2023-02-14T09:34:18;78817.41;;;-144.09;87.55
8890;BME280;4481;43.406;24.454;2023-02-14T09:37:03;78800.69;;;-144.09;87.65
8890;BME280;4481;43.406;24.454;2023-02-14T09:39:47;78806.94;;;-144.09;87.56
8890;BME280;4481;43.406;24.454;2023-02-14T09:42:41;78796.50;;;-144.09;87.82
8890;BME280;4481;43.406;24.454;2023-02-14T09:45:11;78779.78;;;-144.09;88.04
8890;BME280;4481;43.406;24.454;2023-02-14T09:47:42;78763.03;;;-144.09;86.96
8890;BME280;4481;43.406;24.454;2023-02-14T09:50:18;78765.13;;;-144.09;85.97
8890;BME280;4481;43.406;24.454;2023-02-14T09:52:47;78798.59;;;-144.09;85.66
8890;BME280;4481;43.406;24.454;2023-02-14T09:55:16;78815.31;;;-144.09;86.76
8890;BME280;4481;43.406;24.454;2023-02-14T09:57:54;78821.59;;;-144.09;87.10
8890;BME280;4481;43.406;24.454;2023-02-14T10:00:28;78800.69;;;-144.09;86.40
8890;BME280;4481;43.406;24.454;2023-02-14T10:03:02;78809.03;;;-144.09;87.09
8890;BME280;4481;43.406;24.454;2023-02-14T10:05:37;78781.84;;;-144.09;87.04
8890;BME280;4481;43.406;24.454;2023-02-14T10:08:16;78802.78;;;-144.09;87.47
8890;BME280;4481;43.406;24.454;2023-02-14T10:10:52;78781.84;;;-144.09;88.03
8890;BME280;4481;43.406;24.454;2023-02-14T10:13:29;78769.31;;;-144.09;87.25
8890;BME280;4481;43.406;24.454;2023-02-14T10:16:02;78777.69;;;-144.09;87.54
8890;BME280;4481;43.406;24.454;2023-02-14T10:18:38;78777.69;;;-144.09;87.09
8890;BME280;4481;43.406;24.454;2023-02-14T10:21:08;78783.94;;;-144.09;87.49
8890;BME280;4481;43.406;24.454;2023-02-14T10:23:41;78767.22;;;-144.09;87.61
8890;BME280;4481;43.406;24.454;2023-02-14T10:26:12;78758.84;;;-144.09;86.81
8890;BME280;4481;43.406;24.454;2023-02-14T10:28:43;78758.84;;;-144.09;87.48
8890;BME280;4481;43.406;24.454;2023-02-14T10:31:18;78775.59;;;-144.09;87.80
8890;BME280;4481;43.406;24.454;2023-02-14T10:33:51;78775.59;;;-144.09;87.39
8890;BME280;4481;43.406;24.454;2023-02-14T10:36:25;78744.22;;;-144.09;87.63
8890;BME280;4481;43.406;24.454;2023-02-14T10:38:58;78735.84;;;-144.09;87.44
8890;BME280;4481;43.406;24.454;2023-02-14T10:41:32;78742.13;;;-144.09;87.40
8890;BME280;4481;43.406;24.454;2023-02-14T10:44:17;78710.78;;;-144.09;87.97
8890;BME280;4481;43.406;24.454;2023-02-14T10:46:50;78694.03;;;-144.09;87.16
8890;BME280;4481;43.406;24.454;2023-02-14T10:49:26;78689.84;;;-144.09;87.12
8890;BME280;4481;43.406;24.454;2023-02-14T10:52:00;78689.84;;;-144.09;88.23
8890;BME280;4481;43.406;24.454;2023-02-14T10:54:36;78712.84;;;-144.09;87.28
8890;BME280;4481;43.406;24.454;2023-02-14T10:57:06;78710.78;;;-144.09;88.06
8890;BME280;4481;43.406;24.454;2023-02-14T10:59:44;78704.50;;;-144.09;87.29
8890;BME280;4481;43.406;24.454;2023-02-14T11:02:13;78689.84;;;-144.09;87.25
8890;BME280;4481;43.406;24.454;2023-02-14T11:04:41;78677.31;;;-144.09;86.92
8890;BME280;4481;43.406;24.454;2023-02-14T11:07:12;78687.78;;;-144.09;87.34
8890;BME280;4481;43.406;24.454;2023-02-14T11:09:38;78710.78;;;-144.09;88.08
8890;BME280;4481;43.406;24.454;2023-02-14T11:12:05;78710.78;;;-144.09;88.97
8890;BME280;4481;43.406;24.454;2023-02-14T11:14:33;78706.59;;;-144.09;87.63
8890;BME280;4481;43.406;24.454;2023-02-14T11:17:26;78708.69;;;-144.09;87.71
8890;BME280;4481;43.406;24.454;2023-02-14T11:19:56;78685.69;;;-144.09;87.95
8890;BME280;4481;43.406;24.454;2023-02-14T11:22:29;78656.41;;;-144.09;87.69
8890;BME280;4481;43.406;24.454;2023-02-14T11:25:03;78652.22;;;-144.09;87.24
8890;BME280;4481;43.406;24.454;2023-02-14T11:27:29;78650.13;;;-144.09;86.86
8890;BME280;4481;43.406;24.454;2023-02-14T11:29:56;78622.94;;;-144.09;86.21
8890;BME280;4481;43.406;24.454;2023-02-14T11:32:24;78627.13;;;-144.09;86.20
8890;BME280;4481;43.406;24.454;2023-02-14T11:34:59;78616.69;;;-144.09;86.38
8890;BME280;4481;43.406;24.454;2023-02-14T11:37:29;78608.31;;;-144.09;85.62
8890;BME280;4481;43.406;24.454;2023-02-14T11:39:57;78645.94;;;-144.09;86.78
8890;BME280;4481;43.406;24.454;2023-02-14T11:42:40;78635.50;;;-144.09;86.46
8890;BME280;4481;43.406;24.454;2023-02-14T11:45:26;78610.41;;;-144.09;85.46
8890;BME280;4481;43.406;24.454;2023-02-14T11:48:06;78625.03;;;-144.09;85.98
8890;BME280;4481;43.406;24.454;2023-02-14T11:50:35;78633.41;;;-144.09;85.91
8890;BME280;4481;43.406;24.454;2023-02-14T11:53:04;78641.78;;;-144.09;86.02
8890;BME280;4481;43.406;24.454;2023-02-14T11:55:35;78631.31;;;-144.09;86.18
8890;BME280;4481;43.406;24.454;2023-02-14T11:58:03;78641.78;;;-144.09;86.55
8890;BME280;4481;43.406;24.454;2023-02-14T12:00:30;78650.13;;;-144.09;86.32
8890;BME280;4481;43.406;24.454;2023-02-14T12:02:57;78639.69;;;-144.09;86.25
8890;BME280;4481;43.406;24.454;2023-02-14T12:05:27;78616.69;;;-144.09;86.78
8890;BME280;4481;43.406;24.454;2023-02-14T12:07:55;78616.69;;;-144.09;86.10
8890;BME280;4481;43.406;24.454;2023-02-14T12:10:25;78610.41;;;-144.09;86.14
8890;BME280;4481;43.406;24.454;2023-02-14T12:12:57;78604.13;;;-144.09;86.70
8890;BME280;4481;43.406;24.454;2023-02-14T12:15:30;78604.13;;;-144.09;85.90
8890;BME280;4481;43.406;24.454;2023-02-14T12:18:24;78616.69;;;-144.09;87.31
8890;BME280;4481;43.406;24.454;2023-02-14T12:21:00;78616.69;;;-144.09;86.81
8890;BME280;4481;43.406;24.454;2023-02-14T12:23:36;78612.50;;;-144.09;86.87
8890;BME280;4481;43.406;24.454;2023-02-14T12:26:15;78606.22;;;-144.09;87.24
8890;BME280;4481;43.406;24.454;2023-02-14T12:28:46;78604.13;;;-144.09;87.09
8890;BME280;4481;43.406;24.454;2023-02-14T12:31:14;78616.69;;;-144.09;87.77
8890;BME280;4481;43.406;24.454;2023-02-14T12:33:41;78610.41;;;-144.09;88.44
8890;BME280;4481;43.406;24.454;2023-02-14T12:36:13;78572.78;;;-144.09;88.03
8890;BME280;4481;43.406;24.454;2023-02-14T12:38:49;78574.88;;;-144.09;87.40
8890;BME280;4481;43.406;24.454;2023-02-14T12:41:31;78574.88;;;-144.09;87.35
8890;BME280;4481;43.406;24.454;2023-02-14T12:44:03;78587.41;;;-144.09;88.04
8890;BME280;4481;43.406;24.454;2023-02-14T12:50:00;78593.69;;;-144.09;87.00
8890;BME280;4481;43.406;24.454;2023-02-14T12:52:39;78604.13;;;-144.09;87.98
8890;BME280;4481;43.406;24.454;2023-02-14T12:55:22;78595.78;;;-144.09;88.02
8890;BME280;4481;43.406;24.454;2023-02-14T12:57:53;78572.78;;;-144.09;87.80
8890;BME280;4481;43.406;24.454;2023-02-14T13:00:28;78558.13;;;-144.09;87.50
8890;BME280;4481;43.406;24.454;2023-02-14T13:03:34;78547.69;;;-144.09;87.66
8890;BME280;4481;43.406;24.454;2023-02-14T13:06:11;78516.31;;;-144.09;86.69
8890;BME280;4481;43.406;24.454;2023-02-14T13:08:53;78516.31;;;-144.09;87.30
8890;BME280;4481;43.406;24.454;2023-02-14T13:11:33;78512.13;;;-144.09;84.83